Time;durP1;ratioP1;P1;durP2;ratioP2;P2;SDS_P1;SDS_P2;PMS_P1;PMS_P2;Temp;Humidity;BMP_temperature;BMP_pressure;BME280_temperature;BME280_humidity;BME280_pressure;Samples;Min_cycle;Max_cycle;Signal;HPM_P1;HPM_P2
2023/03/30 00:01:47;;;;;;;10.23;5.25;;;;;;;5.78;55.00;98549.88;5091480;28;20020;-71
2023/03/30 00:04:12;;;;;;;6.80;3.70;;;;;;;5.79;54.95;98546.09;5091391;28;20038;-72
2023/03/30 00:06:38;;;;;;;13.25;5.40;;;;;;;5.76;55.50;98546.59;5091581;28;20028;-72
2023/03/30 00:09:05;;;;;;;6.03;3.35;;;;;;;5.74;55.40;98541.41;5091568;28;20030;-72
2023/03/30 00:11:32;;;;;;;6.80;3.85;;;;;;;5.74;55.04;98548.78;5091628;28;20107;-71
2023/03/30 00:13:59;;;;;;;7.63;3.80;;;;;;;5.72;55.72;98529.97;5091597;28;20073;-71
2023/03/30 00:16:24;;;;;;;5.85;3.28;;;;;;;5.70;55.55;98534.88;5091552;28;20046;-72
2023/03/30 00:18:50;;;;;;;6.55;3.55;;;;;;;5.68;55.56;98537.03;5091505;28;20435;-71
2023/03/30 00:21:16;;;;;;;7.32;4.22;;;;;;;5.65;55.49;98532.94;5090608;28;20058;-72
2023/03/30 00:23:45;;;;;;;4.63;3.30;;;;;;;5.65;55.57;98537.56;5091213;28;20028;-72
2023/03/30 00:26:11;;;;;;;5.50;3.15;;;;;;;5.66;55.99;98533.75;5091429;28;20016;-72
2023/03/30 00:28:37;;;;;;;7.85;4.85;;;;;;;5.65;55.70;98527.47;5091160;28;20032;-72
2023/03/30 00:31:03;;;;;;;4.93;3.75;;;;;;;5.68;55.45;98533.50;5091572;28;20023;-71
2023/03/30 00:33:28;;;;;;;7.63;3.47;;;;;;;5.68;55.82;98531.59;5091834;28;20036;-71
2023/03/30 00:35:55;;;;;;;9.50;5.65;;;;;;;5.68;55.38;98531.59;5091771;28;20445;-72
2023/03/30 00:38:22;;;;;;;9.05;5.40;;;;;;;5.67;55.46;98527.25;5088508;28;20112;-71
2023/03/30 00:40:56;;;;;;;6.38;4.15;;;;;;;5.66;56.15;98528.31;5091370;28;20028;-72
2023/03/30 00:43:23;;;;;;;6.30;3.45;;;;;;;5.64;55.47;98531.28;5073829;28;20032;-72
2023/03/30 00:45:49;;;;;;;9.25;5.47;;;;;;;5.66;55.50;98520.16;5069610;28;20025;-72
2023/03/30 00:48:20;;;;;;;5.35;3.70;;;;;;;5.65;55.52;98513.06;5068106;28;20112;-72
2023/03/30 00:50:56;;;;;;;6.05;3.85;;;;;;;5.64;55.93;98511.44;5065300;28;20020;-71
2023/03/30 00:53:28;;;;;;;5.70;3.95;;;;;;;5.62;55.65;98508.97;5063965;28;20056;-72
2023/03/30 00:55:56;;;;;;;5.80;3.63;;;;;;;5.61;55.39;98518.22;5065228;28;20032;-70
2023/03/30 00:58:23;;;;;;;6.10;4.53;;;;;;;5.59;55.92;98505.97;5061801;28;20024;-72
2023/03/30 01:00:50;;;;;;;5.50;4.43;;;;;;;5.57;55.99;98498.03;5070095;28;20516;-71
2023/03/30 01:03:21;;;;;;;10.70;5.85;;;;;;;5.55;55.52;98499.41;5069993;28;20106;-71
2023/03/30 01:05:48;;;;;;;10.93;5.18;;;;;;;5.54;55.85;98501.28;5067577;28;20028;-72
2023/03/30 01:08:15;;;;;;;6.72;4.00;;;;;;;5.57;56.17;98495.31;5067363;28;20415;-72
2023/03/30 01:10:42;;;;;;;6.15;4.03;;;;;;;5.58;55.76;98493.44;5065680;28;20032;-72
2023/03/30 01:13:08;;;;;;;7.65;3.70;;;;;;;5.58;56.12;98488.00;5064449;28;20450;-72
2023/03/30 01:15:42;;;;;;;4.90;3.30;;;;;;;5.55;55.88;98481.16;5064851;28;20025;-72
2023/03/30 01:18:39;;;;;;;6.28;4.43;;;;;;;5.52;56.10;98478.97;5059880;28;20071;-72
2023/03/30 01:21:47;;;;;;;6.30;4.07;;;;;;;5.55;56.09;98480.34;5070322;28;20025;-72
2023/03/30 01:24:52;;;;;;;4.53;3.45;;;;;;;5.53;56.21;98477.06;5067537;28;20038;-72
2023/03/30 01:27:44;;;;;;;10.45;5.97;;;;;;;5.50;55.84;98484.69;5048957;28;20033;-71
2023/03/30 01:30:19;;;;;;;7.45;4.10;;;;;;;5.49;56.21;98479.50;5063716;28;20066;-71
2023/03/30 01:33:21;;;;;;;7.60;4.15;;;;;;;5.48;56.28;98477.88;5061726;28;20028;-71
2023/03/30 01:35:47;;;;;;;6.28;3.47;;;;;;;5.49;55.91;98476.78;5059565;28;20028;-71
2023/03/30 01:38:49;;;;;;;7.65;4.18;;;;;;;5.49;55.82;98474.06;5069307;28;20032;-71
2023/03/30 01:41:32;;;;;;;7.10;3.63;;;;;;;5.49;56.27;98469.44;5064722;28;20040;-71
2023/03/30 01:44:00;;;;;;;6.28;4.00;;;;;;;5.50;56.19;98468.34;5065429;28;20044;-71
2023/03/30 01:46:33;;;;;;;6.70;3.50;;;;;;;5.49;56.20;98460.47;5064080;28;20059;-73
2023/03/30 01:49:25;;;;;;;7.60;3.50;;;;;;;5.50;56.22;98467.56;5062147;28;20032;-72
2023/03/30 01:52:35;;;;;;;5.03;3.17;;;;;;;5.51;56.31;98471.88;5061010;28;20476;-71
2023/03/30 01:55:18;;;;;;;13.23;6.90;;;;;;;5.53;56.64;98474.34;5064463;28;20016;-72
2023/03/30 01:58:02;;;;;;;11.02;5.57;;;;;;;5.57;56.33;98470.84;5067271;28;20024;-71
2023/03/30 02:00:29;;;;;;;6.85;3.70;;;;;;;5.59;56.24;98467.88;5048477;28;20056;-71
2023/03/30 02:03:07;;;;;;;5.38;3.30;;;;;;;5.61;56.30;98468.44;5048206;28;20020;-71
2023/03/30 02:05:35;;;;;;;5.72;3.47;;;;;;;5.62;56.10;98465.44;5048396;28;20029;-71
2023/03/30 02:08:08;;;;;;;7.93;4.32;;;;;;;5.63;55.89;98467.06;5061618;28;20047;-72
2023/03/30 02:10:36;;;;;;;7.40;3.63;;;;;;;5.65;56.01;98469.53;5060056;28;20059;-72
2023/03/30 02:13:05;;;;;;;5.45;3.42;;;;;;;5.64;55.99;98470.63;5067375;28;20028;-71
2023/03/30 02:15:38;;;;;;;3.97;2.83;;;;;;;5.67;55.71;98470.09;5068046;28;20063;-72
2023/03/30 02:18:04;;;;;;;5.40;3.63;;;;;;;5.67;56.19;98459.22;5065217;28;20028;-72
2023/03/30 02:20:31;;;;;;;17.65;8.05;;;;;;;5.70;56.42;98464.13;5065375;28;20066;-71
2023/03/30 02:22:58;;;;;;;10.18;4.50;;;;;;;5.69;56.22;98459.78;5063156;28;20024;-71
2023/03/30 02:25:24;;;;;;;6.22;3.65;;;;;;;5.70;55.71;98463.28;5061930;28;20048;-71
2023/03/30 02:27:50;;;;;;;6.30;3.78;;;;;;;5.68;55.94;98458.13;5059188;28;20104;-72
2023/03/30 02:30:16;;;;;;;4.75;3.38;;;;;;;5.67;56.34;98459.22;5064976;28;20092;-72
2023/03/30 02:32:47;;;;;;;5.70;3.47;;;;;;;5.63;55.73;98463.53;5067352;28;20028;-72
2023/03/30 02:35:22;;;;;;;4.30;2.80;;;;;;;5.60;55.97;98464.06;5065225;28;20021;-71
2023/03/30 02:38:24;;;;;;;5.15;3.47;;;;;;;5.55;55.86;98453.94;5050562;28;20021;-72
2023/03/30 02:41:23;;;;;;;16.92;8.48;;;;;;;5.51;56.12;98450.94;5061936;28;20362;-71
2023/03/30 02:43:56;;;;;;;10.35;5.32;;;;;;;5.49;56.39;98449.59;5084091;28;20048;-72
2023/03/30 02:46:35;;;;;;;8.20;4.75;;;;;;;5.47;55.72;98447.13;5089867;28;20111;-72
2023/03/30 02:49:21;;;;;;;6.50;3.70;;;;;;;5.47;56.27;98452.56;5087072;28;20020;-71
2023/03/30 02:52:14;;;;;;;8.63;3.83;;;;;;;5.44;56.24;98434.03;5088790;28;20099;-72
2023/03/30 02:55:17;;;;;;;5.50;3.33;;;;;;;5.42;56.56;98430.75;5069659;28;20061;-71
2023/03/30 02:57:55;;;;;;;8.02;3.80;;;;;;;5.42;56.19;98424.53;5087841;28;20070;-72
2023/03/30 03:00:38;;;;;;;9.18;4.32;;;;;;;5.42;56.59;98421.78;5089629;28;20028;-72
2023/03/30 03:03:12;;;;;;;7.50;4.32;;;;;;;5.40;56.32;98418.53;5087279;28;20031;-72
2023/03/30 03:05:39;;;;;;;18.95;9.73;;;;;;;5.41;55.89;98418.25;5090071;28;20020;-72
2023/03/30 03:08:04;;;;;;;16.00;7.13;;;;;;;5.42;56.61;98419.09;5089457;28;20058;-71
2023/03/30 03:10:30;;;;;;;14.38;6.43;;;;;;;5.43;56.84;98410.63;5089745;28;20052;-71
2023/03/30 03:12:55;;;;;;;8.52;4.53;;;;;;;5.44;56.81;98412.28;5089289;28;20103;-72
2023/03/30 03:15:21;;;;;;;7.35;4.03;;;;;;;5.45;56.30;98404.94;5089780;28;20020;-72
2023/03/30 03:17:46;;;;;;;9.63;4.60;;;;;;;5.45;56.63;98396.78;5089211;28;20030;-71
2023/03/30 03:20:12;;;;;;;6.93;4.10;;;;;;;5.46;56.81;98412.03;5089928;28;20492;-71
2023/03/30 03:22:38;;;;;;;7.15;3.70;;;;;;;5.48;56.48;98418.03;5089610;28;20031;-71
2023/03/30 03:25:03;;;;;;;7.65;3.65;;;;;;;5.49;56.27;98415.03;5071771;28;20028;-71
2023/03/30 03:27:29;;;;;;;10.77;4.47;;;;;;;5.50;56.90;98418.59;5089372;28;20059;-71
2023/03/30 03:29:55;;;;;;;10.23;5.30;;;;;;;5.53;56.54;98403.63;5089451;28;20055;-71
2023/03/30 03:32:20;;;;;;;9.55;5.30;;;;;;;5.54;56.89;98395.19;5071820;28;20032;-72
2023/03/30 03:34:46;;;;;;;22.23;9.75;;;;;;;5.57;56.32;98396.56;5093921;28;20032;-72
2023/03/30 03:37:12;;;;;;;17.50;8.13;;;;;;;5.56;56.80;98403.91;5093502;28;20384;-72
2023/03/30 03:39:37;;;;;;;15.60;6.75;;;;;;;5.56;56.62;98390.31;5093353;28;20052;-72
2023/03/30 03:42:04;;;;;;;10.75;5.53;;;;;;;5.55;56.56;98382.41;5090053;28;20043;-71
2023/03/30 03:44:30;;;;;;;11.50;5.85;;;;;;;5.55;56.38;98394.09;5071436;28;20036;-71
2023/03/30 03:46:55;;;;;;;12.70;4.75;;;;;;;5.56;56.29;98393.03;5068921;28;20146;-71
2023/03/30 03:49:20;;;;;;;11.63;5.18;;;;;;;5.57;56.90;98382.97;5068783;28;20023;-71
2023/03/30 03:51:46;;;;;;;10.10;4.97;;;;;;;5.57;56.67;98389.22;5067569;28;20033;-72
2023/03/30 03:54:11;;;;;;;8.00;4.65;;;;;;;5.57;56.90;98391.94;5055237;28;20050;-72
2023/03/30 03:56:36;;;;;;;9.98;4.75;;;;;;;5.58;56.94;98390.06;5062722;28;20507;-71
2023/03/30 03:59:03;;;;;;;9.30;4.50;;;;;;;5.58;56.48;98382.69;5071056;28;20055;-72
2023/03/30 04:01:29;;;;;;;8.80;4.97;;;;;;;5.58;57.00;98376.44;5071163;28;20028;-71
2023/03/30 04:03:55;;;;;;;8.75;4.72;;;;;;;5.57;57.03;98372.91;5068407;28;20508;-71
2023/03/30 04:06:20;;;;;;;9.27;5.75;;;;;;;5.59;56.68;98372.66;5054168;28;20036;-71
2023/03/30 04:08:46;;;;;;;11.32;5.35;;;;;;;5.60;56.67;98363.41;5065391;28;20025;-71
2023/03/30 04:11:11;;;;;;;9.70;4.47;;;;;;;5.60;57.07;98371.56;5066205;28;20024;-72
2023/03/30 04:13:38;;;;;;;9.02;4.57;;;;;;;5.58;57.21;98366.38;5062891;28;20032;-72
2023/03/30 04:16:04;;;;;;;8.23;4.40;;;;;;;5.58;57.26;98363.66;5071128;28;20520;-72
2023/03/30 04:18:32;;;;;;;7.13;4.28;;;;;;;5.58;56.57;98360.94;5070903;28;20032;-72
2023/03/30 04:21:01;;;;;;;9.85;4.22;;;;;;;5.59;56.78;98357.13;5069098;28;20024;-71
2023/03/30 04:23:29;;;;;;;8.63;4.38;;;;;;;5.62;56.91;98342.19;5068728;28;20538;-71
2023/03/30 04:25:56;;;;;;;7.45;4.07;;;;;;;5.60;57.08;98357.97;5066116;28;20047;-71
2023/03/30 04:28:23;;;;;;;7.38;3.85;;;;;;;5.61;57.38;98344.06;5064034;28;20100;-70
2023/03/30 04:30:49;;;;;;;6.70;3.70;;;;;;;5.61;56.82;98340.56;5065107;28;20074;-72
2023/03/30 04:33:15;;;;;;;9.40;3.90;;;;;;;5.62;57.32;98332.09;5053860;28;20032;-72
2023/03/30 04:35:40;;;;;;;8.55;4.88;;;;;;;5.65;57.34;98350.63;5070762;28;20038;-72
2023/03/30 04:38:06;;;;;;;9.48;5.00;;;;;;;5.66;57.46;98343.28;5068640;28;20381;-72
2023/03/30 04:40:32;;;;;;;7.60;4.43;;;;;;;5.68;57.14;98341.13;5067100;28;20028;-72
2023/03/30 04:43:02;;;;;;;8.90;5.35;;;;;;;5.70;57.51;98332.69;5066277;28;20433;-72
2023/03/30 04:45:29;;;;;;;6.88;5.03;;;;;;;5.73;57.44;98332.94;5062897;28;20459;-72
2023/03/30 04:47:55;;;;;;;6.40;4.60;;;;;;;5.75;57.37;98324.53;5064583;28;20099;-72
2023/03/30 04:50:20;;;;;;;8.75;4.90;;;;;;;5.75;57.33;98319.91;5063766;28;20543;-72
2023/03/30 04:52:45;;;;;;;7.20;5.35;;;;;;;5.75;56.82;98319.91;5072587;28;20055;-72
2023/03/30 04:55:11;;;;;;;6.90;4.55;;;;;;;5.76;57.41;98320.72;5057817;28;20052;-73
2023/03/30 04:57:36;;;;;;;8.98;4.75;;;;;;;5.76;57.02;98326.16;5052741;28;20043;-72
2023/03/30 05:00:06;;;;;;;9.57;4.50;;;;;;;5.75;57.01;98319.91;5060615;28;20025;-72
2023/03/30 05:02:32;;;;;;;5.75;4.28;;;;;;;5.76;57.48;98326.97;5050997;28;20029;-73
2023/03/30 05:04:57;;;;;;;8.00;5.28;;;;;;;5.76;57.48;98326.97;5063656;28;20038;-72
2023/03/30 05:07:22;;;;;;;6.53;4.70;;;;;;;5.78;57.72;98326.72;5072529;28;20060;-72
2023/03/30 05:09:48;;;;;;;7.70;4.90;;;;;;;5.78;57.31;98324.00;5072390;28;20029;-72
2023/03/30 05:12:15;;;;;;;8.55;5.40;;;;;;;5.82;57.28;98330.56;5071759;28;20059;-73
2023/03/30 05:14:41;;;;;;;10.23;6.25;;;;;;;5.87;57.53;98314.22;5072493;28;20032;-72
2023/03/30 05:17:07;;;;;;;9.32;4.78;;;;;;;5.89;57.87;98322.13;5072376;28;20031;-73
2023/03/30 05:19:32;;;;;;;8.23;6.60;;;;;;;5.92;57.40;98316.94;5067943;28;20038;-72
2023/03/30 05:21:58;;;;;;;12.45;6.38;;;;;;;5.93;57.19;98315.84;5050674;28;20025;-73
2023/03/30 05:24:23;;;;;;;15.10;8.55;;;;;;;5.96;57.85;98325.41;5070231;28;20070;-72
2023/03/30 05:26:49;;;;;;;15.40;10.13;;;;;;;5.99;57.48;98310.44;5072261;28;20031;-72
2023/03/30 05:29:16;;;;;;;13.20;8.75;;;;;;;6.02;57.62;98309.91;5071778;28;20491;-72
2023/03/30 05:31:41;;;;;;;11.27;7.78;;;;;;;6.06;57.65;98308.28;5060839;28;20028;-73
2023/03/30 05:34:06;;;;;;;13.77;11.38;;;;;;;6.07;57.55;98310.75;5053259;28;20047;-72
2023/03/30 05:36:34;;;;;;;14.77;7.97;;;;;;;6.14;57.81;98298.75;5062343;28;20033;-73
2023/03/30 05:38:59;;;;;;;12.13;7.10;;;;;;;6.18;57.53;98297.97;5061742;28;20040;-74
2023/03/30 05:41:26;;;;;;;15.43;7.10;;;;;;;6.23;57.54;98273.47;5053222;28;20504;-73
2023/03/30 05:43:52;;;;;;;12.30;7.32;;;;;;;6.27;57.76;98262.84;5083586;28;20069;-72
2023/03/30 05:46:17;;;;;;;18.40;8.25;;;;;;;6.29;57.70;98270.75;5072835;28;20024;-73
2023/03/30 05:48:43;;;;;;;9.50;5.70;;;;;;;6.33;57.58;98267.19;5071783;28;20036;-72
2023/03/30 05:51:08;;;;;;;13.35;7.18;;;;;;;6.38;57.83;98258.19;5087750;28;20031;-73
2023/03/30 05:53:34;;;;;;;10.30;6.20;;;;;;;6.46;57.59;98230.41;5089848;28;20381;-72
2023/03/30 05:55:59;;;;;;;8.45;5.35;;;;;;;6.51;57.58;98215.97;5088667;28;20024;-73
2023/03/30 05:58:26;;;;;;;10.60;6.43;;;;;;;6.57;57.34;98227.66;5084828;28;20024;-72
2023/03/30 06:00:53;;;;;;;9.05;6.15;;;;;;;6.65;57.63;98221.66;5089513;28;20026;-72
2023/03/30 06:03:18;;;;;;;11.85;6.80;;;;;;;6.72;57.22;98227.63;5091189;28;20073;-72
2023/03/30 06:05:44;;;;;;;9.32;6.43;;;;;;;6.77;57.12;98222.16;5086500;28;20102;-72
2023/03/30 06:08:10;;;;;;;11.98;7.53;;;;;;;6.84;56.90;98230.84;5091157;28;20417;-72
2023/03/30 06:10:37;;;;;;;10.85;6.60;;;;;;;6.92;57.12;98239.56;5091606;28;20414;-73
2023/03/30 06:13:03;;;;;;;9.95;6.20;;;;;;;6.98;56.96;98239.25;5088882;28;20377;-73
2023/03/30 06:15:28;;;;;;;8.43;5.38;;;;;;;7.04;56.85;98237.34;5090496;28;20020;-72
2023/03/30 06:17:54;;;;;;;7.97;4.82;;;;;;;7.11;57.10;98242.50;5087771;28;20024;-73
2023/03/30 06:20:23;;;;;;;8.90;4.90;;;;;;;7.17;56.66;98238.66;5091268;28;20110;-73
2023/03/30 06:22:49;;;;;;;8.88;5.97;;;;;;;7.23;56.44;98245.72;5086954;28;20023;-73
2023/03/30 06:25:15;;;;;;;8.70;4.57;;;;;;;7.31;56.69;98236.13;5088715;28;20030;-73
2023/03/30 06:27:40;;;;;;;9.23;5.13;;;;;;;7.36;55.93;98241.56;5090278;28;20028;-74
2023/03/30 06:30:10;;;;;;;10.10;6.07;;;;;;;7.40;56.03;98230.91;5092155;28;20473;-73
2023/03/30 06:32:35;;;;;;;11.05;5.45;;;;;;;7.44;55.83;98232.81;5088417;28;20024;-73
2023/03/30 06:35:02;;;;;;;10.35;5.88;;;;;;;7.51;55.77;98226.22;5086371;28;20032;-72
2023/03/30 06:37:30;;;;;;;10.73;6.80;;;;;;;7.58;55.66;98240.34;5071265;28;20108;-71
2023/03/30 06:39:56;;;;;;;11.98;5.18;;;;;;;7.65;56.07;98234.59;5086823;28;20443;-72
2023/03/30 06:42:21;;;;;;;10.88;5.53;;;;;;;7.70;56.09;98235.38;5089595;28;20067;-72
2023/03/30 06:44:46;;;;;;;11.75;5.50;;;;;;;7.73;55.66;98237.53;5088482;28;20484;-72
2023/03/30 06:47:12;;;;;;;10.27;5.15;;;;;;;7.79;55.23;98243.78;5090735;28;20024;-76
2023/03/30 06:49:37;;;;;;;10.88;6.03;;;;;;;7.79;55.21;98238.31;5090115;28;20541;-73
2023/03/30 06:52:02;;;;;;;8.05;5.38;;;;;;;7.82;55.14;98226.03;5088693;28;20123;-71
2023/03/30 06:54:28;;;;;;;11.05;6.75;;;;;;;7.84;54.86;98232.81;5088987;28;20040;-72
2023/03/30 06:56:53;;;;;;;9.18;4.88;;;;;;;7.86;55.05;98238.00;5088724;28;20069;-72
2023/03/30 06:59:19;;;;;;;8.65;4.75;;;;;;;7.89;54.71;98232.78;5090218;28;20031;-72
2023/03/30 07:01:44;;;;;;;8.30;4.60;;;;;;;7.93;55.37;98216.66;5088125;28;20495;-70
2023/03/30 07:04:10;;;;;;;8.57;4.95;;;;;;;7.97;54.79;98219.63;5070332;28;20024;-71
2023/03/30 07:06:35;;;;;;;8.00;4.75;;;;;;;7.96;54.59;98212.53;5088573;28;20019;-71
2023/03/30 07:09:03;;;;;;;7.57;4.30;;;;;;;7.97;54.68;98225.09;5089167;28;20103;-73
2023/03/30 07:11:28;;;;;;;10.25;4.78;;;;;;;7.99;54.58;98222.88;5088683;28;20028;-71
2023/03/30 07:13:57;;;;;;;11.50;5.70;;;;;;;8.04;54.51;98233.78;5089169;28;20055;-72
2023/03/30 07:16:23;;;;;;;10.35;5.53;;;;;;;8.06;54.96;98223.38;5089714;28;20107;-73
2023/03/30 07:18:48;;;;;;;9.50;5.88;;;;;;;8.13;54.61;98220.31;5086275;28;20094;-71
2023/03/30 07:21:14;;;;;;;12.52;6.50;;;;;;;8.21;54.91;98219.72;5083366;28;20523;-71
2023/03/30 07:23:42;;;;;;;14.60;7.70;;;;;;;8.29;54.86;98219.09;5089566;28;20081;-71
2023/03/30 07:26:08;;;;;;;13.30;5.15;;;;;;;8.43;54.51;98212.94;5089896;28;20035;-71
2023/03/30 07:28:37;;;;;;;13.80;8.25;;;;;;;8.59;55.06;98214.47;5089932;28;20388;-72
2023/03/30 07:31:07;;;;;;;9.48;4.82;;;;;;;8.73;54.91;98217.31;5080877;28;20024;-72
2023/03/30 07:33:33;;;;;;;11.43;5.40;;;;;;;8.88;54.52;98218.25;5085409;28;20028;-72
2023/03/30 07:35:58;;;;;;;10.25;4.93;;;;;;;9.03;54.64;98220.81;5068811;28;20036;-72
2023/03/30 07:38:24;;;;;;;9.02;4.63;;;;;;;9.18;54.43;98210.78;5089052;28;20032;-74
2023/03/30 07:40:50;;;;;;;8.50;4.70;;;;;;;9.35;53.77;98208.38;5087727;28;20036;-74
2023/03/30 07:43:15;;;;;;;7.97;5.13;;;;;;;9.51;53.52;98199.94;5071852;28;20448;-74
2023/03/30 07:45:41;;;;;;;12.20;5.40;;;;;;;9.66;54.21;98209.84;5061473;28;20044;-73
2023/03/30 07:48:06;;;;;;;8.73;4.15;;;;;;;9.85;53.24;98217.25;5056478;28;20028;-74
2023/03/30 07:50:31;;;;;;;8.38;4.60;;;;;;;9.94;53.16;98223.69;5048404;28;20041;-73
2023/03/30 07:52:57;;;;;;;9.00;3.70;;;;;;;10.07;52.69;98220.19;5058312;28;20064;-73
2023/03/30 07:55:23;;;;;;;9.30;5.47;;;;;;;10.17;52.57;98218.41;5065588;28;20286;-71
2023/03/30 07:57:48;;;;;;;9.30;4.30;;;;;;;10.28;52.24;98208.91;5069615;28;20036;-72
2023/03/30 08:00:14;;;;;;;8.10;4.03;;;;;;;10.37;52.05;98207.09;5070307;28;20040;-72
2023/03/30 08:02:40;;;;;;;7.18;3.78;;;;;;;10.49;51.75;98208.56;5049813;28;20028;-72
2023/03/30 08:05:06;;;;;;;5.68;3.38;;;;;;;10.65;51.50;98204.44;5064577;28;20029;-72
2023/03/30 08:07:33;;;;;;;6.20;3.10;;;;;;;10.77;51.29;98200.38;5057043;28;20037;-74
2023/03/30 08:09:59;;;;;;;4.60;3.17;;;;;;;10.83;50.82;98199.13;5061075;28;20028;-73
2023/03/30 08:12:24;;;;;;;6.45;3.53;;;;;;;10.85;50.69;98200.47;5067217;28;20027;-72
2023/03/30 08:14:50;;;;;;;27.35;8.20;;;;;;;10.87;50.42;98211.13;5067279;28;20028;-73
2023/03/30 08:17:16;;;;;;;5.82;3.53;;;;;;;10.87;50.00;98197.41;5063770;28;20067;-74
2023/03/30 08:19:41;;;;;;;8.38;3.17;;;;;;;10.84;49.97;98207.09;5071156;28;20443;-74
2023/03/30 08:22:06;;;;;;;5.25;3.65;;;;;;;10.81;50.44;98193.13;5073729;28;20021;-74
2023/03/30 08:24:32;;;;;;;6.30;3.38;;;;;;;10.79;49.79;98198.16;5073897;28;20447;-73
2023/03/30 08:26:58;;;;;;;7.20;3.42;;;;;;;10.82;50.63;98189.28;5074258;28;20052;-74
2023/03/30 08:29:24;;;;;;;9.05;4.30;;;;;;;10.92;49.97;98178.13;5073398;28;20480;-74
2023/03/30 08:31:50;;;;;;;7.18;3.85;;;;;;;11.00;50.80;98180.16;5071665;28;20036;-74
2023/03/30 08:34:15;;;;;;;6.25;2.80;;;;;;;11.08;50.33;98180.56;5067472;28;20095;-75
2023/03/30 08:36:40;;;;;;;5.65;3.90;;;;;;;11.12;49.68;98178.81;5070480;28;20036;-74
2023/03/30 08:39:06;;;;;;;6.72;3.20;;;;;;;11.10;49.20;98183.81;5072470;28;20020;-74
2023/03/30 08:41:57;;;;;;;5.55;2.97;;;;;;;11.03;49.58;98186.94;5073570;28;20032;-74
2023/03/30 08:44:39;;;;;;;9.95;4.03;;;;;;;10.99;49.59;98161.25;5074029;28;20040;-74
2023/03/30 08:47:14;;;;;;;5.72;3.38;;;;;;;10.96;49.92;98179.13;5056166;28;20490;-74
2023/03/30 08:49:54;;;;;;;6.00;3.85;;;;;;;10.82;49.65;98159.94;5073524;28;20036;-74
2023/03/30 08:52:24;;;;;;;6.38;3.90;;;;;;;10.71;48.48;98162.06;5073631;28;20485;-74
2023/03/30 08:54:50;;;;;;;8.45;3.47;;;;;;;10.59;49.72;98171.94;5069552;28;20443;-74
2023/03/30 08:57:35;;;;;;;8.38;3.33;;;;;;;10.54;49.81;98157.19;5060099;28;20043;-74
2023/03/30 09:00:23;;;;;;;6.55;3.90;;;;;;;10.55;49.48;98166.22;5070062;28;20106;-75
2023/03/30 09:02:56;;;;;;;6.35;3.35;;;;;;;10.60;50.32;98154.34;5056748;28;20029;-74
2023/03/30 09:05:30;;;;;;;6.72;5.25;;;;;;;10.66;50.73;98151.19;5051176;28;20021;-74
2023/03/30 09:08:04;;;;;;;6.07;3.80;;;;;;;10.75;50.42;98161.47;5072442;28;20492;-75
2023/03/30 09:10:35;;;;;;;6.25;3.42;;;;;;;10.87;50.20;98162.56;5063413;28;20130;-74
2023/03/30 09:13:03;;;;;;;7.20;3.58;;;;;;;11.02;49.92;98166.94;5065904;28;20052;-76
2023/03/30 09:15:38;;;;;;;5.68;2.97;;;;;;;11.09;49.82;98147.28;5047873;28;20052;-75
2023/03/30 09:18:10;;;;;;;7.32;3.38;;;;;;;11.20;49.70;98145.16;5052916;28;20063;-75
2023/03/30 09:20:38;;;;;;;5.60;3.35;;;;;;;11.33;49.67;98143.50;5053121;28;20037;-75
2023/03/30 09:23:10;;;;;;;6.45;3.35;;;;;;;11.40;49.18;98116.44;5052990;28;20033;-74
2023/03/30 09:25:45;;;;;;;10.55;6.90;;;;;;;11.47;49.28;98111.31;5064149;28;20065;-74
2023/03/30 09:28:16;;;;;;;9.32;6.65;;;;;;;11.57;49.41;98104.78;5067982;28;20025;-75
2023/03/30 09:30:50;;;;;;;5.75;3.25;;;;;;;11.66;50.27;98090.28;5052626;28;20033;-75
2023/03/30 09:33:37;;;;;;;4.75;2.65;;;;;;;11.62;49.36;98085.41;5050018;28;20029;-74
2023/03/30 09:36:16;;;;;;;3.80;2.42;;;;;;;11.61;49.54;98083.78;5056717;28;20112;-74
2023/03/30 09:38:43;;;;;;;7.90;5.32;;;;;;;11.73;49.02;98082.41;5052263;28;20453;-75
2023/03/30 09:41:38;;;;;;;9.15;4.10;;;;;;;11.77;48.99;98097.16;5052458;28;20469;-75
2023/03/30 09:44:11;;;;;;;8.55;5.57;;;;;;;11.86;48.82;98092.53;5072528;28;20053;-75
2023/03/30 09:46:37;;;;;;;8.00;3.95;;;;;;;11.96;48.46;98091.44;5072748;28;20028;-75
2023/03/30 09:49:15;;;;;;;6.32;2.80;;;;;;;11.98;48.26;98082.91;5072156;28;20032;-75
2023/03/30 09:52:00;;;;;;;7.07;4.82;;;;;;;11.98;48.83;98083.69;5072308;28;20042;-75
2023/03/30 09:54:33;;;;;;;8.25;3.80;;;;;;;12.03;48.15;98067.09;5046775;28;20029;-74
2023/03/30 09:56:59;;;;;;;5.72;3.53;;;;;;;12.11;48.89;98072.97;5058578;28;20021;-74
2023/03/30 09:59:36;;;;;;;6.07;3.25;;;;;;;12.16;48.58;98070.09;5066162;28;20388;-74
2023/03/30 10:02:11;;;;;;;5.32;3.60;;;;;;;12.16;48.47;98081.09;5071985;28;20024;-74
2023/03/30 10:04:52;;;;;;;5.65;4.18;;;;;;;12.10;48.50;98066.66;5071782;28;20029;-74
2023/03/30 10:07:25;;;;;;;6.05;3.35;;;;;;;12.10;48.19;98060.34;5071291;28;20028;-74
2023/03/30 10:09:51;;;;;;;7.13;3.53;;;;;;;12.05;47.63;98064.84;5071053;28;20455;-74
2023/03/30 10:12:17;;;;;;;6.25;4.22;;;;;;;12.02;48.55;98065.50;5071425;28;20029;-74
2023/03/30 10:14:43;;;;;;;5.30;3.35;;;;;;;12.05;48.65;98070.34;5071407;28;20033;-74
2023/03/30 10:17:19;;;;;;;8.48;3.83;;;;;;;12.10;48.58;98061.16;5071536;28;20020;-74
2023/03/30 10:19:45;;;;;;;10.10;3.70;;;;;;;12.21;48.55;98065.25;5071097;28;20032;-73
2023/03/30 10:22:18;;;;;;;7.63;4.53;;;;;;;12.30;48.31;98057.03;5066974;28;20020;-74
2023/03/30 10:24:56;;;;;;;7.32;4.00;;;;;;;12.40;48.92;98041.38;5070937;28;20097;-74
2023/03/30 10:27:32;;;;;;;8.40;4.95;;;;;;;12.54;48.37;98042.09;5053539;28;20472;-74
2023/03/30 10:30:08;;;;;;;10.45;3.50;;;;;;;12.63;48.45;98028.34;5071186;28;20067;-74
2023/03/30 10:32:35;;;;;;;8.80;3.25;;;;;;;12.71;48.66;98023.97;5070795;28;20439;-73
2023/03/30 10:35:06;;;;;;;6.75;3.05;;;;;;;12.83;49.09;98015.13;5070182;28;20027;-74
2023/03/30 10:37:38;;;;;;;7.65;3.25;;;;;;;12.98;48.85;98016.59;5051456;28;20450;-75
2023/03/30 10:40:25;;;;;;;8.82;3.45;;;;;;;13.15;48.84;98027.56;5049039;28;20032;-75
2023/03/30 10:42:54;;;;;;;8.05;3.35;;;;;;;13.32;48.71;98013.00;5068405;28;20099;-74
2023/03/30 10:45:27;;;;;;;8.63;2.92;;;;;;;13.49;49.00;98006.69;5087862;28;20496;-74
2023/03/30 10:48:10;;;;;;;5.60;2.92;;;;;;;13.68;48.70;98000.81;5091724;28;20548;-74
2023/03/30 10:50:51;;;;;;;6.07;2.58;;;;;;;13.88;48.02;98001.25;5091437;28;20120;-73
2023/03/30 10:53:16;;;;;;;8.70;2.97;;;;;;;14.09;48.57;97998.56;5091568;28;20036;-75
2023/03/30 10:56:05;;;;;;;4.03;2.20;;;;;;;14.28;47.57;97998.16;5091229;28;20038;-74
2023/03/30 10:58:48;;;;;;;5.78;2.45;;;;;;;14.41;47.74;98004.56;5088298;28;20435;-75
2023/03/30 11:01:35;;;;;;;5.10;2.30;;;;;;;14.60;47.79;98006.09;5073622;28;20068;-75
2023/03/30 11:04:18;;;;;;;5.97;2.60;;;;;;;14.73;46.82;98004.25;5088176;28;20028;-74
2023/03/30 11:06:44;;;;;;;5.78;2.67;;;;;;;14.80;47.19;98000.97;5091555;28;20029;-74
2023/03/30 11:09:16;;;;;;;5.28;2.85;;;;;;;14.74;46.83;98005.88;5091093;28;20016;-75
2023/03/30 11:12:18;;;;;;;5.60;3.08;;;;;;;14.62;46.24;97991.97;5091451;28;20020;-75
2023/03/30 11:15:02;;;;;;;8.40;3.22;;;;;;;14.37;46.56;97970.53;5075255;28;20048;-75
2023/03/30 11:17:35;;;;;;;6.85;3.85;;;;;;;14.27;46.76;97957.94;5087482;28;20020;-76
2023/03/30 11:20:16;;;;;;;7.90;3.10;;;;;;;14.19;46.98;97957.97;5089838;28;20020;-74
2023/03/30 11:22:47;;;;;;;6.15;3.00;;;;;;;14.08;47.39;97972.13;5091087;28;20081;-74
2023/03/30 11:25:23;;;;;;;6.93;3.40;;;;;;;14.00;47.72;97950.91;5091328;28;20036;-76
2023/03/30 11:27:58;;;;;;;7.90;3.20;;;;;;;13.96;47.88;97958.22;5090968;28;20016;-72
2023/03/30 11:30:31;;;;;;;6.18;2.92;;;;;;;13.96;47.53;97961.81;5091382;28;20020;-72
2023/03/30 11:33:16;;;;;;;7.63;4.28;;;;;;;13.90;47.50;97965.88;5090884;28;20036;-73
2023/03/30 11:35:46;;;;;;;7.53;4.13;;;;;;;13.86;47.89;97953.91;5090848;28;20032;-73
2023/03/30 11:38:18;;;;;;;6.10;3.30;;;;;;;13.85;47.86;97949.53;5090548;28;20051;-74
2023/03/30 11:40:52;;;;;;;7.38;3.85;;;;;;;13.89;47.72;97958.75;5090457;28;20028;-73
2023/03/30 11:43:21;;;;;;;10.35;5.63;;;;;;;13.88;47.70;97953.56;5090582;28;20585;-72
2023/03/30 11:45:55;;;;;;;9.32;5.32;;;;;;;13.88;48.05;97940.59;5090551;28;20062;-73
2023/03/30 11:48:27;;;;;;;6.10;3.70;;;;;;;13.89;47.71;97947.72;5090426;28;20502;-72
2023/03/30 11:51:04;;;;;;;8.45;3.70;;;;;;;13.86;47.34;97923.59;5087810;28;20091;-71
2023/03/30 11:53:53;;;;;;;14.02;7.03;;;;;;;13.83;47.88;97932.50;5090872;28;20089;-72